sensor_id;sensor_type;location;lat;lon;timestamp;temperature;humidity
2603;DHT22;1311;47.966;7.958;2024-03-06T00:02:24;6.10;99.90
2603;DHT22;1311;47.966;7.958;2024-03-06T00:04:51;6.10;99.90
2603;DHT22;1311;47.966;7.958;2024-03-06T00:07:18;6.20;99.90
2603;DHT22;1311;47.966;7.958;2024-03-06T00:09:44;6.10;99.90
2603;DHT22;1311;47.966;7.958;2024-03-06T00:12:11;6.00;99.90
2603;DHT22;1311;47.966;7.958;2024-03-06T00:14:39;6.10;99.90
2603;DHT22;1311;47.966;7.958;2024-03-06T00:17:06;6.10;99.90
2603;DHT22;1311;47.966;7.958;2024-03-06T00:19:32;6.10;99.90
2603;DHT22;1311;47.966;7.958;2024-03-06T00:21:59;6.10;99.90
2603;DHT22;1311;47.966;7.958;2024-03-06T00:24:26;6.10;99.90
2603;DHT22;1311;47.966;7.958;2024-03-06T00:26:53;6.00;99.90
2603;DHT22;1311;47.966;7.958;2024-03-06T00:29:20;5.90;99.90
2603;DHT22;1311;47.966;7.958;2024-03-06T00:31:48;5.90;99.90
2603;DHT22;1311;47.966;7.958;2024-03-06T00:34:14;6.00;99.90
2603;DHT22;1311;47.966;7.958;2024-03-06T00:36:42;6.00;99.90
2603;DHT22;1311;47.966;7.958;2024-03-06T00:39:09;6.00;99.90
2603;DHT22;1311;47.966;7.958;2024-03-06T00:41:35;6.00;99.90
2603;DHT22;1311;47.966;7.958;2024-03-06T00:44:03;6.00;99.90
2603;DHT22;1311;47.966;7.958;2024-03-06T00:46:28;6.00;99.90
2603;DHT22;1311;47.966;7.958;2024-03-06T00:48:56;5.90;99.90
2603;DHT22;1311;47.966;7.958;2024-03-06T00:51:23;5.90;99.90
2603;DHT22;1311;47.966;7.958;2024-03-06T00:53:50;5.90;99.90
2603;DHT22;1311;47.966;7.958;2024-03-06T00:56:16;5.90;99.90
2603;DHT22;1311;47.966;7.958;2024-03-06T00:58:43;5.80;99.90
2603;DHT22;1311;47.966;7.958;2024-03-06T01:01:10;5.90;99.90
2603;DHT22;1311;47.966;7.958;2024-03-06T01:03:37;5.80;99.90
2603;DHT22;1311;47.966;7.958;2024-03-06T01:06:05;5.90;99.90
2603;DHT22;1311;47.966;7.958;2024-03-06T01:08:32;5.90;99.90
2603;DHT22;1311;47.966;7.958;2024-03-06T01:10:59;5.90;99.90
2603;DHT22;1311;47.966;7.958;2024-03-06T01:13:25;5.90;99.90
2603;DHT22;1311;47.966;7.958;2024-03-06T01:15:52;5.90;99.90
2603;DHT22;1311;47.966;7.958;2024-03-06T01:18:19;5.90;99.90
2603;DHT22;1311;47.966;7.958;2024-03-06T01:20:46;5.90;99.90
2603;DHT22;1311;47.966;7.958;2024-03-06T01:23:14;5.90;99.90
2603;DHT22;1311;47.966;7.958;2024-03-06T01:25:42;5.90;99.90
2603;DHT22;1311;47.966;7.958;2024-03-06T01:28:09;5.90;99.90
2603;DHT22;1311;47.966;7.958;2024-03-06T01:30:35;5.90;99.90
2603;DHT22;1311;47.966;7.958;2024-03-06T01:33:02;5.90;99.90
2603;DHT22;1311;47.966;7.958;2024-03-06T01:35:30;5.90;99.90
2603;DHT22;1311;47.966;7.958;2024-03-06T01:37:57;5.90;99.90
2603;DHT22;1311;47.966;7.958;2024-03-06T01:40:25;5.90;99.90
2603;DHT22;1311;47.966;7.958;2024-03-06T01:42:51;5.90;99.90
2603;DHT22;1311;47.966;7.958;2024-03-06T01:45:18;6.00;99.90
2603;DHT22;1311;47.966;7.958;2024-03-06T01:47:45;6.00;99.90
2603;DHT22;1311;47.966;7.958;2024-03-06T01:50:12;6.00;99.90
2603;DHT22;1311;47.966;7.958;2024-03-06T01:52:41;6.00;99.90
2603;DHT22;1311;47.966;7.958;2024-03-06T01:55:09;6.00;99.90
2603;DHT22;1311;47.966;7.958;2024-03-06T01:57:38;6.00;99.90
2603;DHT22;1311;47.966;7.958;2024-03-06T02:00:07;6.00;99.90
2603;DHT22;1311;47.966;7.958;2024-03-06T02:02:40;6.00;99.90
2603;DHT22;1311;47.966;7.958;2024-03-06T02:05:06;6.00;99.90
2603;DHT22;1311;47.966;7.958;2024-03-06T02:07:34;6.00;99.90
2603;DHT22;1311;47.966;7.958;2024-03-06T02:10:01;6.00;99.90
2603;DHT22;1311;47.966;7.958;2024-03-06T02:12:30;6.00;99.90
2603;DHT22;1311;47.966;7.958;2024-03-06T02:14:58;6.00;99.90
2603;DHT22;1311;47.966;7.958;2024-03-06T02:17:24;5.90;99.90
2603;DHT22;1311;47.966;7.958;2024-03-06T02:19:51;5.80;99.90
2603;DHT22;1311;47.966;7.958;2024-03-06T02:22:19;5.90;99.90
2603;DHT22;1311;47.966;7.958;2024-03-06T02:24:48;5.90;99.90
2603;DHT22;1311;47.966;7.958;2024-03-06T02:27:15;5.90;99.90
2603;DHT22;1311;47.966;7.958;2024-03-06T02:29:42;6.00;99.90
2603;DHT22;1311;47.966;7.958;2024-03-06T02:32:09;6.00;99.90
2603;DHT22;1311;47.966;7.958;2024-03-06T02:34:38;6.00;99.90
2603;DHT22;1311;47.966;7.958;2024-03-06T02:37:06;6.00;99.90
2603;DHT22;1311;47.966;7.958;2024-03-06T02:39:34;6.00;99.90
2603;DHT22;1311;47.966;7.958;2024-03-06T02:42:00;6.00;99.90
2603;DHT22;1311;47.966;7.958;2024-03-06T02:44:28;6.00;99.90
2603;DHT22;1311;47.966;7.958;2024-03-06T02:46:55;5.90;99.90
2603;DHT22;1311;47.966;7.958;2024-03-06T02:49:21;5.90;99.90
2603;DHT22;1311;47.966;7.958;2024-03-06T02:51:48;5.80;99.90
2603;DHT22;1311;47.966;7.958;2024-03-06T02:54:15;5.80;99.90
2603;DHT22;1311;47.966;7.958;2024-03-06T02:56:43;5.80;99.90
2603;DHT22;1311;47.966;7.958;2024-03-06T02:59:10;5.70;99.90
2603;DHT22;1311;47.966;7.958;2024-03-06T03:01:36;5.60;99.90
2603;DHT22;1311;47.966;7.958;2024-03-06T03:04:04;5.50;99.90
2603;DHT22;1311;47.966;7.958;2024-03-06T03:06:32;5.50;99.90
2603;DHT22;1311;47.966;7.958;2024-03-06T03:08:58;5.50;99.90
2603;DHT22;1311;47.966;7.958;2024-03-06T03:11:25;5.50;99.90
2603;DHT22;1311;47.966;7.958;2024-03-06T03:13:53;5.50;99.90
2603;DHT22;1311;47.966;7.958;2024-03-06T03:16:20;5.40;99.90
2603;DHT22;1311;47.966;7.958;2024-03-06T03:18:47;5.50;99.90
2603;DHT22;1311;47.966;7.958;2024-03-06T03:21:14;5.50;99.90
2603;DHT22;1311;47.966;7.958;2024-03-06T03:23:41;5.50;99.90
2603;DHT22;1311;47.966;7.958;2024-03-06T03:26:08;5.40;99.90
2603;DHT22;1311;47.966;7.958;2024-03-06T03:28:37;5.40;99.90
2603;DHT22;1311;47.966;7.958;2024-03-06T03:31:06;5.40;99.90
2603;DHT22;1311;47.966;7.958;2024-03-06T03:33:34;5.40;99.90
2603;DHT22;1311;47.966;7.958;2024-03-06T03:36:02;5.40;99.90
2603;DHT22;1311;47.966;7.958;2024-03-06T03:38:28;5.40;99.90
2603;DHT22;1311;47.966;7.958;2024-03-06T03:40:55;5.40;99.90
2603;DHT22;1311;47.966;7.958;2024-03-06T03:43:22;5.40;99.90
2603;DHT22;1311;47.966;7.958;2024-03-06T03:45:48;5.40;99.90
2603;DHT22;1311;47.966;7.958;2024-03-06T03:48:16;5.40;99.90
2603;DHT22;1311;47.966;7.958;2024-03-06T03:50:43;5.40;99.90
2603;DHT22;1311;47.966;7.958;2024-03-06T03:53:10;5.50;99.90
2603;DHT22;1311;47.966;7.958;2024-03-06T03:55:36;5.50;99.90
2603;DHT22;1311;47.966;7.958;2024-03-06T03:58:03;5.50;99.90
2603;DHT22;1311;47.966;7.958;2024-03-06T04:00:32;5.50;99.90
2603;DHT22;1311;47.966;7.958;2024-03-06T04:02:59;5.50;99.90
2603;DHT22;1311;47.966;7.958;2024-03-06T04:05:27;5.50;99.90
2603;DHT22;1311;47.966;7.958;2024-03-06T04:07:53;5.50;99.90
2603;DHT22;1311;47.966;7.958;2024-03-06T04:10:20;5.50;99.90
2603;DHT22;1311;47.966;7.958;2024-03-06T04:12:47;5.40;99.90
2603;DHT22;1311;47.966;7.958;2024-03-06T04:15:14;5.40;99.90
2603;DHT22;1311;47.966;7.958;2024-03-06T04:17:41;5.30;99.90
2603;DHT22;1311;47.966;7.958;2024-03-06T04:20:09;5.20;99.90
2603;DHT22;1311;47.966;7.958;2024-03-06T04:22:38;5.20;99.90
2603;DHT22;1311;47.966;7.958;2024-03-06T04:25:06;5.30;99.90
2603;DHT22;1311;47.966;7.958;2024-03-06T04:27:32;5.30;99.90
2603;DHT22;1311;47.966;7.958;2024-03-06T04:29:59;5.20;99.90
2603;DHT22;1311;47.966;7.958;2024-03-06T04:32:26;5.20;99.90
2603;DHT22;1311;47.966;7.958;2024-03-06T04:34:53;5.20;99.90
2603;DHT22;1311;47.966;7.958;2024-03-06T04:37:21;5.20;99.90
2603;DHT22;1311;47.966;7.958;2024-03-06T04:39:49;5.20;99.90
2603;DHT22;1311;47.966;7.958;2024-03-06T04:42:16;5.20;99.90
2603;DHT22;1311;47.966;7.958;2024-03-06T04:44:45;5.10;99.90
2603;DHT22;1311;47.966;7.958;2024-03-06T04:47:12;5.10;99.90
2603;DHT22;1311;47.966;7.958;2024-03-06T04:49:38;5.10;99.90
2603;DHT22;1311;47.966;7.958;2024-03-06T04:52:05;5.10;99.90
2603;DHT22;1311;47.966;7.958;2024-03-06T04:54:32;5.10;99.90
2603;DHT22;1311;47.966;7.958;2024-03-06T04:57:00;5.10;99.90
2603;DHT22;1311;47.966;7.958;2024-03-06T04:59:28;5.10;99.90
2603;DHT22;1311;47.966;7.958;2024-03-06T05:01:54;5.10;99.90
2603;DHT22;1311;47.966;7.958;2024-03-06T05:04:21;5.10;99.90
2603;DHT22;1311;47.966;7.958;2024-03-06T05:06:48;5.10;99.90
2603;DHT22;1311;47.966;7.958;2024-03-06T05:09:15;5.00;99.90
2603;DHT22;1311;47.966;7.958;2024-03-06T05:11:42;5.00;99.90
2603;DHT22;1311;47.966;7.958;2024-03-06T05:14:11;5.10;99.90
2603;DHT22;1311;47.966;7.958;2024-03-06T05:16:37;5.00;99.90
2603;DHT22;1311;47.966;7.958;2024-03-06T05:19:04;5.00;99.90
2603;DHT22;1311;47.966;7.958;2024-03-06T05:21:32;5.00;99.90
2603;DHT22;1311;47.966;7.958;2024-03-06T05:24:00;5.00;99.90
2603;DHT22;1311;47.966;7.958;2024-03-06T05:26:27;5.00;99.90
2603;DHT22;1311;47.966;7.958;2024-03-06T05:28:54;5.00;99.90
2603;DHT22;1311;47.966;7.958;2024-03-06T05:31:22;5.00;99.90
2603;DHT22;1311;47.966;7.958;2024-03-06T05:33:49;5.00;99.90
2603;DHT22;1311;47.966;7.958;2024-03-06T05:36:16;4.90;99.90
2603;DHT22;1311;47.966;7.958;2024-03-06T05:38:44;4.90;99.90
2603;DHT22;1311;47.966;7.958;2024-03-06T05:41:11;4.80;99.90
2603;DHT22;1311;47.966;7.958;2024-03-06T05:43:37;4.90;99.90
2603;DHT22;1311;47.966;7.958;2024-03-06T05:46:06;5.00;99.90
2603;DHT22;1311;47.966;7.958;2024-03-06T05:48:34;4.90;99.90
2603;DHT22;1311;47.966;7.958;2024-03-06T05:51:01;4.80;99.90
2603;DHT22;1311;47.966;7.958;2024-03-06T05:53:28;4.70;99.90
2603;DHT22;1311;47.966;7.958;2024-03-06T05:55:55;4.70;99.90
2603;DHT22;1311;47.966;7.958;2024-03-06T05:58:22;4.70;99.90
2603;DHT22;1311;47.966;7.958;2024-03-06T06:00:49;4.80;99.90
2603;DHT22;1311;47.966;7.958;2024-03-06T06:03:16;4.80;99.90
2603;DHT22;1311;47.966;7.958;2024-03-06T06:05:44;4.70;99.90
2603;DHT22;1311;47.966;7.958;2024-03-06T06:08:10;4.70;99.90
2603;DHT22;1311;47.966;7.958;2024-03-06T06:10:37;4.70;99.90
2603;DHT22;1311;47.966;7.958;2024-03-06T06:13:04;4.70;99.90
2603;DHT22;1311;47.966;7.958;2024-03-06T06:15:31;4.60;99.90
2603;DHT22;1311;47.966;7.958;2024-03-06T06:17:58;4.60;99.90
2603;DHT22;1311;47.966;7.958;2024-03-06T06:20:25;4.60;99.90
2603;DHT22;1311;47.966;7.958;2024-03-06T06:22:53;4.60;99.90
2603;DHT22;1311;47.966;7.958;2024-03-06T06:25:20;4.60;99.90
2603;DHT22;1311;47.966;7.958;2024-03-06T06:27:46;4.50;99.90
2603;DHT22;1311;47.966;7.958;2024-03-06T06:30:15;4.50;99.90
2603;DHT22;1311;47.966;7.958;2024-03-06T06:32:41;4.40;99.90
2603;DHT22;1311;47.966;7.958;2024-03-06T06:35:09;4.40;99.90
2603;DHT22;1311;47.966;7.958;2024-03-06T06:37:37;4.30;99.90
2603;DHT22;1311;47.966;7.958;2024-03-06T06:40:06;4.30;99.90
2603;DHT22;1311;47.966;7.958;2024-03-06T06:42:34;4.40;99.90
2603;DHT22;1311;47.966;7.958;2024-03-06T06:45:01;4.40;99.90
2603;DHT22;1311;47.966;7.958;2024-03-06T06:47:28;4.50;99.90
2603;DHT22;1311;47.966;7.958;2024-03-06T06:49:55;4.40;99.90
2603;DHT22;1311;47.966;7.958;2024-03-06T06:52:21;4.50;99.90
2603;DHT22;1311;47.966;7.958;2024-03-06T06:54:48;4.50;99.90
2603;DHT22;1311;47.966;7.958;2024-03-06T06:57:18;4.60;99.90
2603;DHT22;1311;47.966;7.958;2024-03-06T06:59:45;4.60;99.90
2603;DHT22;1311;47.966;7.958;2024-03-06T07:02:12;4.70;99.90
2603;DHT22;1311;47.966;7.958;2024-03-06T07:04:38;4.70;99.90
2603;DHT22;1311;47.966;7.958;2024-03-06T07:07:05;4.70;99.90
2603;DHT22;1311;47.966;7.958;2024-03-06T07:09:32;4.80;99.90
2603;DHT22;1311;47.966;7.958;2024-03-06T07:11:59;4.80;99.90
2603;DHT22;1311;47.966;7.958;2024-03-06T07:14:27;4.90;99.90
2603;DHT22;1311;47.966;7.958;2024-03-06T07:16:54;5.00;99.90
2603;DHT22;1311;47.966;7.958;2024-03-06T07:19:21;5.10;99.90
2603;DHT22;1311;47.966;7.958;2024-03-06T07:21:47;5.10;99.90
2603;DHT22;1311;47.966;7.958;2024-03-06T07:24:14;5.10;99.90
2603;DHT22;1311;47.966;7.958;2024-03-06T07:26:41;5.10;99.90
2603;DHT22;1311;47.966;7.958;2024-03-06T07:29:07;5.20;99.90
2603;DHT22;1311;47.966;7.958;2024-03-06T07:31:41;5.20;99.90
2603;DHT22;1311;47.966;7.958;2024-03-06T07:34:08;5.30;99.90
2603;DHT22;1311;47.966;7.958;2024-03-06T07:36:35;5.30;99.90
2603;DHT22;1311;47.966;7.958;2024-03-06T07:39:02;5.30;99.90
2603;DHT22;1311;47.966;7.958;2024-03-06T07:41:30;5.30;99.90
2603;DHT22;1311;47.966;7.958;2024-03-06T07:43:58;5.40;99.90
2603;DHT22;1311;47.966;7.958;2024-03-06T07:46:25;5.40;99.90
2603;DHT22;1311;47.966;7.958;2024-03-06T07:48:53;5.50;99.90
2603;DHT22;1311;47.966;7.958;2024-03-06T07:51:20;5.50;99.90
2603;DHT22;1311;47.966;7.958;2024-03-06T07:53:47;5.50;99.90
2603;DHT22;1311;47.966;7.958;2024-03-06T07:56:15;5.50;99.90
2603;DHT22;1311;47.966;7.958;2024-03-06T07:58:42;5.50;99.90
2603;DHT22;1311;47.966;7.958;2024-03-06T08:01:09;5.50;99.90
2603;DHT22;1311;47.966;7.958;2024-03-06T08:03:38;5.50;99.90
2603;DHT22;1311;47.966;7.958;2024-03-06T08:06:07;5.60;99.90
2603;DHT22;1311;47.966;7.958;2024-03-06T08:08:34;5.60;99.90
2603;DHT22;1311;47.966;7.958;2024-03-06T08:11:01;5.60;99.90
2603;DHT22;1311;47.966;7.958;2024-03-06T08:13:27;5.70;99.90
2603;DHT22;1311;47.966;7.958;2024-03-06T08:15:54;5.70;99.90
2603;DHT22;1311;47.966;7.958;2024-03-06T08:18:21;5.70;99.90
2603;DHT22;1311;47.966;7.958;2024-03-06T08:20:48;5.70;99.90
2603;DHT22;1311;47.966;7.958;2024-03-06T08:23:16;5.80;99.90
2603;DHT22;1311;47.966;7.958;2024-03-06T08:25:42;5.80;99.90
2603;DHT22;1311;47.966;7.958;2024-03-06T08:28:09;5.80;99.90
2603;DHT22;1311;47.966;7.958;2024-03-06T08:30:36;5.90;99.90
2603;DHT22;1311;47.966;7.958;2024-03-06T08:33:03;6.00;99.90
2603;DHT22;1311;47.966;7.958;2024-03-06T08:35:30;6.00;99.90
2603;DHT22;1311;47.966;7.958;2024-03-06T08:37:57;6.00;99.90
2603;DHT22;1311;47.966;7.958;2024-03-06T08:40:25;6.00;99.90
2603;DHT22;1311;47.966;7.958;2024-03-06T08:42:53;6.20;99.90
2603;DHT22;1311;47.966;7.958;2024-03-06T08:45:20;6.40;99.90
2603;DHT22;1311;47.966;7.958;2024-03-06T08:47:48;6.40;99.90
2603;DHT22;1311;47.966;7.958;2024-03-06T08:50:16;6.40;99.90
2603;DHT22;1311;47.966;7.958;2024-03-06T08:52:43;6.40;99.90
2603;DHT22;1311;47.966;7.958;2024-03-06T08:55:10;6.40;99.90
2603;DHT22;1311;47.966;7.958;2024-03-06T08:57:38;6.50;99.90
2603;DHT22;1311;47.966;7.958;2024-03-06T09:00:07;6.70;99.90
2603;DHT22;1311;47.966;7.958;2024-03-06T09:02:37;6.70;99.90
2603;DHT22;1311;47.966;7.958;2024-03-06T09:05:05;6.80;99.90
2603;DHT22;1311;47.966;7.958;2024-03-06T09:07:32;7.00;99.90
2603;DHT22;1311;47.966;7.958;2024-03-06T09:10:03;7.10;99.90
2603;DHT22;1311;47.966;7.958;2024-03-06T09:12:31;7.30;99.90
2603;DHT22;1311;47.966;7.958;2024-03-06T09:15:01;7.30;99.90
2603;DHT22;1311;47.966;7.958;2024-03-06T09:17:28;7.40;99.90
2603;DHT22;1311;47.966;7.958;2024-03-06T09:19:55;7.40;99.90
2603;DHT22;1311;47.966;7.958;2024-03-06T09:22:22;7.50;99.90
2603;DHT22;1311;47.966;7.958;2024-03-06T09:24:49;7.60;99.90
2603;DHT22;1311;47.966;7.958;2024-03-06T09:27:16;7.70;99.90
2603;DHT22;1311;47.966;7.958;2024-03-06T09:29:43;7.80;99.90
2603;DHT22;1311;47.966;7.958;2024-03-06T09:32:12;7.90;99.90
2603;DHT22;1311;47.966;7.958;2024-03-06T09:34:41;7.80;99.90
2603;DHT22;1311;47.966;7.958;2024-03-06T09:37:08;7.80;99.90
2603;DHT22;1311;47.966;7.958;2024-03-06T09:39:35;7.70;99.90
2603;DHT22;1311;47.966;7.958;2024-03-06T09:42:02;7.80;99.90
2603;DHT22;1311;47.966;7.958;2024-03-06T09:44:29;7.80;99.90
2603;DHT22;1311;47.966;7.958;2024-03-06T09:46:59;7.80;99.90
2603;DHT22;1311;47.966;7.958;2024-03-06T09:49:27;7.90;99.90
2603;DHT22;1311;47.966;7.958;2024-03-06T09:51:55;7.90;99.90
2603;DHT22;1311;47.966;7.958;2024-03-06T09:54:27;7.70;99.90
2603;DHT22;1311;47.966;7.958;2024-03-06T09:56:55;7.80;99.90
2603;DHT22;1311;47.966;7.958;2024-03-06T09:59:23;8.00;99.90
2603;DHT22;1311;47.966;7.958;2024-03-06T10:01:51;8.10;99.90
2603;DHT22;1311;47.966;7.958;2024-03-06T10:04:20;8.20;99.90
2603;DHT22;1311;47.966;7.958;2024-03-06T10:06:49;8.30;99.90
2603;DHT22;1311;47.966;7.958;2024-03-06T10:09:17;8.50;99.90
2603;DHT22;1311;47.966;7.958;2024-03-06T10:11:44;8.50;99.90
2603;DHT22;1311;47.966;7.958;2024-03-06T10:14:12;8.60;99.90
2603;DHT22;1311;47.966;7.958;2024-03-06T10:16:54;8.70;99.90
2603;DHT22;1311;47.966;7.958;2024-03-06T10:19:23;8.80;99.90
2603;DHT22;1311;47.966;7.958;2024-03-06T10:21:52;8.80;99.90
2603;DHT22;1311;47.966;7.958;2024-03-06T10:24:19;8.90;99.90
2603;DHT22;1311;47.966;7.958;2024-03-06T10:26:46;8.80;99.90
2603;DHT22;1311;47.966;7.958;2024-03-06T10:29:16;8.90;99.90
2603;DHT22;1311;47.966;7.958;2024-03-06T10:31:51;8.90;99.90
2603;DHT22;1311;47.966;7.958;2024-03-06T10:34:20;9.20;99.90
2603;DHT22;1311;47.966;7.958;2024-03-06T10:36:54;9.40;99.90
2603;DHT22;1311;47.966;7.958;2024-03-06T10:39:21;9.50;99.90
2603;DHT22;1311;47.966;7.958;2024-03-06T10:41:52;9.60;99.90
2603;DHT22;1311;47.966;7.958;2024-03-06T10:44:21;9.70;99.90
2603;DHT22;1311;47.966;7.958;2024-03-06T10:46:56;9.70;99.90
2603;DHT22;1311;47.966;7.958;2024-03-06T10:49:25;9.70;99.90
2603;DHT22;1311;47.966;7.958;2024-03-06T10:51:57;9.60;99.90
2603;DHT22;1311;47.966;7.958;2024-03-06T10:54:33;9.60;99.90
2603;DHT22;1311;47.966;7.958;2024-03-06T10:57:01;9.80;99.90
2603;DHT22;1311;47.966;7.958;2024-03-06T10:59:29;9.70;99.90
2603;DHT22;1311;47.966;7.958;2024-03-06T11:01:56;9.50;99.90
2603;DHT22;1311;47.966;7.958;2024-03-06T11:04:25;9.50;99.90
2603;DHT22;1311;47.966;7.958;2024-03-06T11:06:55;9.40;99.90
2603;DHT22;1311;47.966;7.958;2024-03-06T11:09:22;9.40;99.90
2603;DHT22;1311;47.966;7.958;2024-03-06T11:11:49;9.30;99.90
2603;DHT22;1311;47.966;7.958;2024-03-06T11:14:16;9.20;99.90
2603;DHT22;1311;47.966;7.958;2024-03-06T11:17:03;9.10;99.90
2603;DHT22;1311;47.966;7.958;2024-03-06T11:19:31;9.10;99.90
2603;DHT22;1311;47.966;7.958;2024-03-06T11:21:59;9.00;99.90
2603;DHT22;1311;47.966;7.958;2024-03-06T11:24:32;9.10;99.90
2603;DHT22;1311;47.966;7.958;2024-03-06T11:27:00;9.10;99.90
2603;DHT22;1311;47.966;7.958;2024-03-06T11:29:28;9.30;99.90
2603;DHT22;1311;47.966;7.958;2024-03-06T11:32:06;9.70;99.90
2603;DHT22;1311;47.966;7.958;2024-03-06T11:34:34;9.90;99.90
2603;DHT22;1311;47.966;7.958;2024-03-06T11:37:06;10.00;99.90
2603;DHT22;1311;47.966;7.958;2024-03-06T11:39:35;10.20;99.90
2603;DHT22;1311;47.966;7.958;2024-03-06T11:42:03;10.20;99.90
2603;DHT22;1311;47.966;7.958;2024-03-06T11:44:32;10.40;99.90
2603;DHT22;1311;47.966;7.958;2024-03-06T11:46:59;10.50;99.90
2603;DHT22;1311;47.966;7.958;2024-03-06T11:49:27;10.80;99.90
2603;DHT22;1311;47.966;7.958;2024-03-06T11:51:59;10.90;99.90
2603;DHT22;1311;47.966;7.958;2024-03-06T11:54:28;10.80;99.90
2603;DHT22;1311;47.966;7.958;2024-03-06T11:56:55;10.70;99.90
2603;DHT22;1311;47.966;7.958;2024-03-06T11:59:22;10.40;99.90
2603;DHT22;1311;47.966;7.958;2024-03-06T12:01:50;10.20;99.90
2603;DHT22;1311;47.966;7.958;2024-03-06T12:04:18;9.90;99.90
2603;DHT22;1311;47.966;7.958;2024-03-06T12:06:44;9.60;99.90
2603;DHT22;1311;47.966;7.958;2024-03-06T12:09:11;9.80;99.90
2603;DHT22;1311;47.966;7.958;2024-03-06T12:11:39;9.90;99.90
2603;DHT22;1311;47.966;7.958;2024-03-06T12:14:13;9.80;99.90
2603;DHT22;1311;47.966;7.958;2024-03-06T12:16:39;9.80;99.90
2603;DHT22;1311;47.966;7.958;2024-03-06T12:19:06;9.80;99.90
2603;DHT22;1311;47.966;7.958;2024-03-06T12:21:35;10.10;99.90
2603;DHT22;1311;47.966;7.958;2024-03-06T12:24:03;10.50;99.90
2603;DHT22;1311;47.966;7.958;2024-03-06T12:26:30;11.20;99.90
2603;DHT22;1311;47.966;7.958;2024-03-06T12:29:05;11.30;99.90
2603;DHT22;1311;47.966;7.958;2024-03-06T12:31:34;11.30;99.90
2603;DHT22;1311;47.966;7.958;2024-03-06T12:34:01;11.10;99.90
2603;DHT22;1311;47.966;7.958;2024-03-06T12:36:29;11.10;99.90
2603;DHT22;1311;47.966;7.958;2024-03-06T12:38:58;11.30;99.90
2603;DHT22;1311;47.966;7.958;2024-03-06T12:41:25;11.30;99.90
2603;DHT22;1311;47.966;7.958;2024-03-06T12:43:53;11.00;99.90
2603;DHT22;1311;47.966;7.958;2024-03-06T12:46:22;10.70;99.90
2603;DHT22;1311;47.966;7.958;2024-03-06T12:48:49;10.60;99.90
2603;DHT22;1311;47.966;7.958;2024-03-06T12:51:15;10.50;99.90
2603;DHT22;1311;47.966;7.958;2024-03-06T12:53:42;10.70;99.90
2603;DHT22;1311;47.966;7.958;2024-03-06T12:56:09;10.60;79.30
2603;DHT22;1311;47.966;7.958;2024-03-06T12:58:36;10.70;63.00
2603;DHT22;1311;47.966;7.958;2024-03-06T13:01:03;11.00;77.00
2603;DHT22;1311;47.966;7.958;2024-03-06T13:03:31;11.20;57.20
2603;DHT22;1311;47.966;7.958;2024-03-06T13:05:59;11.30;29.70
2603;DHT22;1311;47.966;7.958;2024-03-06T13:08:26;11.40;7.50
2603;DHT22;1311;47.966;7.958;2024-03-06T13:10:53;11.60;13.20
2603;DHT22;1311;47.966;7.958;2024-03-06T13:13:21;11.60;9.20
2603;DHT22;1311;47.966;7.958;2024-03-06T13:15:50;11.30;5.30
2603;DHT22;1311;47.966;7.958;2024-03-06T13:18:17;11.00;1.00
2603;DHT22;1311;47.966;7.958;2024-03-06T13:20:45;10.80;1.00
2603;DHT22;1311;47.966;7.958;2024-03-06T13:23:12;10.50;1.00
2603;DHT22;1311;47.966;7.958;2024-03-06T13:25:39;10.40;9.20
2603;DHT22;1311;47.966;7.958;2024-03-06T13:28:07;10.50;65.50
2603;DHT22;1311;47.966;7.958;2024-03-06T13:30:34;10.30;37.80
2603;DHT22;1311;47.966;7.958;2024-03-06T13:33:00;10.30;29.40
2603;DHT22;1311;47.966;7.958;2024-03-06T13:35:27;10.30;23.20
2603;DHT22;1311;47.966;7.958;2024-03-06T13:37:56;10.20;35.50
2603;DHT22;1311;47.966;7.958;2024-03-06T13:40:23;10.20;70.80
2603;DHT22;1311;47.966;7.958;2024-03-06T13:42:51;10.40;99.90
2603;DHT22;1311;47.966;7.958;2024-03-06T13:45:18;10.30;99.90
2603;DHT22;1311;47.966;7.958;2024-03-06T13:47:45;10.00;49.90
2603;DHT22;1311;47.966;7.958;2024-03-06T13:50:13;9.90;31.70
2603;DHT22;1311;47.966;7.958;2024-03-06T13:52:40;9.60;19.70
2603;DHT22;1311;47.966;7.958;2024-03-06T13:55:09;9.60;27.20
2603;DHT22;1311;47.966;7.958;2024-03-06T13:57:38;9.30;41.50
2603;DHT22;1311;47.966;7.958;2024-03-06T14:00:06;9.10;41.60
2603;DHT22;1311;47.966;7.958;2024-03-06T14:02:37;8.90;99.60
2603;DHT22;1311;47.966;7.958;2024-03-06T14:05:05;8.80;99.90
2603;DHT22;1311;47.966;7.958;2024-03-06T14:07:33;8.80;99.90
2603;DHT22;1311;47.966;7.958;2024-03-06T14:09:59;9.00;99.90
2603;DHT22;1311;47.966;7.958;2024-03-06T14:12:27;9.00;99.90
2603;DHT22;1311;47.966;7.958;2024-03-06T14:14:54;8.90;99.90
2603;DHT22;1311;47.966;7.958;2024-03-06T14:17:21;8.90;99.90
2603;DHT22;1311;47.966;7.958;2024-03-06T14:19:47;8.80;99.90
2603;DHT22;1311;47.966;7.958;2024-03-06T14:22:14;8.60;99.90
2603;DHT22;1311;47.966;7.958;2024-03-06T14:24:42;8.70;99.90
2603;DHT22;1311;47.966;7.958;2024-03-06T14:27:09;8.70;99.90
2603;DHT22;1311;47.966;7.958;2024-03-06T14:29:37;8.70;99.90
2603;DHT22;1311;47.966;7.958;2024-03-06T14:32:05;8.70;99.90
2603;DHT22;1311;47.966;7.958;2024-03-06T14:34:32;8.60;99.90
2603;DHT22;1311;47.966;7.958;2024-03-06T14:36:58;8.20;99.90
2603;DHT22;1311;47.966;7.958;2024-03-06T14:39:26;8.30;99.90
2603;DHT22;1311;47.966;7.958;2024-03-06T14:41:52;8.30;99.90
2603;DHT22;1311;47.966;7.958;2024-03-06T14:44:19;8.30;99.90
2603;DHT22;1311;47.966;7.958;2024-03-06T14:46:47;8.40;99.90
2603;DHT22;1311;47.966;7.958;2024-03-06T14:49:14;8.30;99.90
2603;DHT22;1311;47.966;7.958;2024-03-06T14:51:42;8.20;99.90
2603;DHT22;1311;47.966;7.958;2024-03-06T14:54:09;8.00;99.90
2603;DHT22;1311;47.966;7.958;2024-03-06T14:56:36;7.80;99.90
2603;DHT22;1311;47.966;7.958;2024-03-06T14:59:02;7.60;99.90
2603;DHT22;1311;47.966;7.958;2024-03-06T15:01:29;7.70;99.90
2603;DHT22;1311;47.966;7.958;2024-03-06T15:03:57;7.80;99.90
2603;DHT22;1311;47.966;7.958;2024-03-06T15:06:25;7.70;99.90
2603;DHT22;1311;47.966;7.958;2024-03-06T15:08:52;7.60;99.90
2603;DHT22;1311;47.966;7.958;2024-03-06T15:11:19;7.60;99.90
2603;DHT22;1311;47.966;7.958;2024-03-06T15:13:47;7.60;99.90
2603;DHT22;1311;47.966;7.958;2024-03-06T15:16:14;7.60;99.90
2603;DHT22;1311;47.966;7.958;2024-03-06T15:18:41;7.60;99.90
2603;DHT22;1311;47.966;7.958;2024-03-06T15:21:10;7.50;99.90
2603;DHT22;1311;47.966;7.958;2024-03-06T15:23:38;7.50;99.90
2603;DHT22;1311;47.966;7.958;2024-03-06T15:26:05;7.30;99.90
2603;DHT22;1311;47.966;7.958;2024-03-06T15:28:32;7.20;99.90
2603;DHT22;1311;47.966;7.958;2024-03-06T15:30:58;7.20;99.90
2603;DHT22;1311;47.966;7.958;2024-03-06T15:33:29;7.10;99.90
2603;DHT22;1311;47.966;7.958;2024-03-06T15:35:56;7.10;99.90
2603;DHT22;1311;47.966;7.958;2024-03-06T15:38:25;7.20;99.90
2603;DHT22;1311;47.966;7.958;2024-03-06T15:40:52;7.10;99.90
2603;DHT22;1311;47.966;7.958;2024-03-06T15:43:19;7.10;99.90
2603;DHT22;1311;47.966;7.958;2024-03-06T15:45:46;7.00;99.90
2603;DHT22;1311;47.966;7.958;2024-03-06T15:48:13;7.00;99.90
2603;DHT22;1311;47.966;7.958;2024-03-06T15:50:40;7.10;99.90
2603;DHT22;1311;47.966;7.958;2024-03-06T15:53:05;7.00;99.90
2603;DHT22;1311;47.966;7.958;2024-03-06T15:55:35;7.00;99.90
2603;DHT22;1311;47.966;7.958;2024-03-06T15:58:03;7.10;99.90
2603;DHT22;1311;47.966;7.958;2024-03-06T16:00:30;7.10;99.90
2603;DHT22;1311;47.966;7.958;2024-03-06T16:02:57;7.10;99.90
2603;DHT22;1311;47.966;7.958;2024-03-06T16:05:24;7.20;99.90
2603;DHT22;1311;47.966;7.958;2024-03-06T16:07:54;7.10;99.90
2603;DHT22;1311;47.966;7.958;2024-03-06T16:10:21;7.10;99.90
2603;DHT22;1311;47.966;7.958;2024-03-06T16:12:49;7.10;99.90
2603;DHT22;1311;47.966;7.958;2024-03-06T16:15:16;7.10;99.90
2603;DHT22;1311;47.966;7.958;2024-03-06T16:17:43;7.10;99.90
2603;DHT22;1311;47.966;7.958;2024-03-06T16:20:10;7.10;99.90